createdAt,value
2022-10-07T00:00:55.076Z,8.98
2022-10-07T00:03:30.781Z,7.97
2022-10-07T00:06:13.840Z,8.30
2022-10-07T00:08:53.062Z,8.00
2022-10-07T00:11:22.846Z,8.27
2022-10-07T00:13:57.436Z,7.80
2022-10-07T00:16:38.705Z,8.57
2022-10-07T00:19:12.435Z,7.95
2022-10-07T00:21:40.823Z,7.97
2022-10-07T00:24:09.224Z,8.23
2022-10-07T00:26:40.305Z,8.23
2022-10-07T00:29:16.288Z,7.43
2022-10-07T00:31:46.770Z,6.90
2022-10-07T00:34:14.382Z,7.10
2022-10-07T00:36:44.946Z,7.28
2022-10-07T00:39:19.068Z,6.78
2022-10-07T00:41:53.133Z,6.93
2022-10-07T00:44:32.301Z,7.38
2022-10-07T00:47:07.507Z,6.25
2022-10-07T00:50:02.272Z,6.57
2022-10-07T00:52:36.703Z,5.80
2022-10-07T00:55:11.844Z,5.97
2022-10-07T00:57:44.126Z,6.68
2022-10-07T01:00:12.935Z,6.32
2022-10-07T01:02:41.028Z,5.95
2022-10-07T01:05:14.271Z,6.68
2022-10-07T01:07:46.134Z,6.78
2022-10-07T01:10:18.873Z,5.88
2022-10-07T01:13:23.979Z,5.55
2022-10-07T01:16:12.860Z,5.75
2022-10-07T01:19:13.224Z,5.82
2022-10-07T01:21:56.665Z,5.88
2022-10-07T01:24:55.843Z,5.60
2022-10-07T01:27:26.950Z,5.68
2022-10-07T01:30:08.331Z,5.88
2022-10-07T01:32:40.893Z,5.47
2022-10-07T01:35:18.325Z,5.75
2022-10-07T01:37:51.242Z,5.68
2022-10-07T01:40:33.636Z,6.10
2022-10-07T01:43:01.858Z,6.05
2022-10-07T01:45:31.224Z,6.18
2022-10-07T01:47:59.702Z,6.20
2022-10-07T01:50:29.814Z,5.47
2022-10-07T01:53:22.512Z,6.32
2022-10-07T01:55:55.585Z,6.28
2022-10-07T01:58:47.033Z,6.30
2022-10-07T02:01:50.610Z,5.88
2022-10-07T02:04:31.216Z,6.00
2022-10-07T02:07:16.341Z,5.80
2022-10-07T02:10:02.455Z,6.07
2022-10-07T02:12:35.575Z,5.53
2022-10-07T02:15:11.758Z,5.57
2022-10-07T02:17:43.866Z,5.72
2022-10-07T02:20:14.994Z,6.13
2022-10-07T02:22:45.298Z,5.70
2022-10-07T02:25:15.452Z,6.13
2022-10-07T02:27:55.640Z,5.70
2022-10-07T02:30:24.752Z,5.65
2022-10-07T02:32:59.132Z,5.80
2022-10-07T02:35:37.414Z,5.68
2022-10-07T02:38:10.106Z,5.63
2022-10-07T02:40:43.580Z,5.97
2022-10-07T02:43:23.358Z,6.13
2022-10-07T02:45:59.700Z,5.80
2022-10-07T02:48:32.603Z,6.10
2022-10-07T02:51:03.850Z,5.80
2022-10-07T02:53:33.519Z,6.25
2022-10-07T02:56:04.022Z,5.88
2022-10-07T02:58:31.483Z,5.25
2022-10-07T03:01:01.424Z,5.78
2022-10-07T03:03:30.557Z,5.75
2022-10-07T03:06:05.103Z,5.38
2022-10-07T03:08:33.319Z,5.70
2022-10-07T03:11:01.865Z,5.57
2022-10-07T03:13:31.323Z,5.43
2022-10-07T03:16:04.489Z,5.13
2022-10-07T03:18:32.552Z,5.88
2022-10-07T03:23:52.753Z,6.22
2022-10-07T03:26:22.083Z,5.28
2022-10-07T03:28:49.708Z,5.38
2022-10-07T03:31:17.016Z,4.93
2022-10-07T03:33:48.305Z,5.20
2022-10-07T03:36:15.429Z,4.70
2022-10-07T03:38:45.124Z,5.10
2022-10-07T03:41:13.141Z,4.60
2022-10-07T03:43:40.391Z,4.60
2022-10-07T03:46:09.621Z,4.75
2022-10-07T03:48:38.237Z,4.60
2022-10-07T03:51:05.939Z,4.65
2022-10-07T03:53:38.317Z,4.53
2022-10-07T03:56:06.264Z,4.85
2022-10-07T03:58:33.883Z,4.68
2022-10-07T04:01:07.879Z,4.47
2022-10-07T04:03:37.046Z,5.15
2022-10-07T04:06:04.612Z,4.95
2022-10-07T04:08:34.478Z,5.25
2022-10-07T04:11:04.076Z,4.97
2022-10-07T04:13:32.472Z,4.78
2022-10-07T04:16:06.333Z,4.70
2022-10-07T04:18:33.379Z,4.95
2022-10-07T04:21:00.948Z,4.60
2022-10-07T04:23:29.684Z,4.55
2022-10-07T04:25:56.800Z,5.30
2022-10-07T04:28:26.361Z,4.75
2022-10-07T04:31:16.135Z,4.47
2022-10-07T04:33:46.604Z,4.95
2022-10-07T04:36:19.498Z,4.43
2022-10-07T04:39:00.301Z,4.68
2022-10-07T04:41:31.565Z,4.05
2022-10-07T04:43:58.587Z,4.95
2022-10-07T04:46:30.103Z,4.00
2022-10-07T04:49:05.294Z,4.13
2022-10-07T04:51:32.927Z,4.00
2022-10-07T04:54:01.348Z,3.88
2022-10-07T04:56:38.159Z,4.07
2022-10-07T04:59:07.846Z,3.80
2022-10-07T05:01:36.972Z,3.70
2022-10-07T05:04:04.439Z,3.38
2022-10-07T05:06:33.633Z,3.33
2022-10-07T05:09:01.009Z,3.30
2022-10-07T05:11:30.173Z,3.75
2022-10-07T05:14:03.598Z,3.83
2022-10-07T05:16:32.255Z,3.30
2022-10-07T05:18:59.854Z,3.42
2022-10-07T05:21:26.932Z,3.38
2022-10-07T05:23:54.054Z,3.70
2022-10-07T05:26:26.239Z,3.10
2022-10-07T05:28:57.877Z,3.55
2022-10-07T05:31:31.584Z,3.25
2022-10-07T05:34:02.279Z,2.85
2022-10-07T05:36:29.843Z,3.60
2022-10-07T05:38:59.184Z,3.38
2022-10-07T05:41:44.995Z,3.92
2022-10-07T05:44:14.451Z,2.92
2022-10-07T05:46:42.514Z,3.33
2022-10-07T05:49:10.175Z,3.33
2022-10-07T05:51:37.378Z,3.38
2022-10-07T05:54:05.656Z,3.20
2022-10-07T05:56:37.758Z,3.38
2022-10-07T05:59:05.043Z,2.97
2022-10-07T06:01:32.645Z,3.20
2022-10-07T06:04:07.003Z,3.50
2022-10-07T06:06:36.582Z,3.05
2022-10-07T06:09:26.239Z,3.40
2022-10-07T06:12:12.329Z,3.20
2022-10-07T06:14:39.946Z,3.00
2022-10-07T06:17:08.279Z,3.38
2022-10-07T06:19:37.723Z,2.92
2022-10-07T06:22:05.214Z,3.17
2022-10-07T06:24:35.296Z,2.92
2022-10-07T06:27:02.895Z,4.40
2022-10-07T06:29:30.701Z,3.10
2022-10-07T06:31:58.482Z,2.85
2022-10-07T06:34:26.092Z,2.72
2022-10-07T06:36:54.627Z,3.25
2022-10-07T06:39:21.627Z,3.28
2022-10-07T06:41:52.518Z,2.80
2022-10-07T06:44:39.725Z,2.60
2022-10-07T06:47:11.828Z,2.83
2022-10-07T06:49:41.303Z,2.20
2022-10-07T06:52:08.516Z,2.65
2022-10-07T06:54:36.408Z,2.50
2022-10-07T06:57:20.496Z,3.05
2022-10-07T06:59:51.728Z,2.47
2022-10-07T07:02:19.724Z,2.58
2022-10-07T07:08:17.423Z,2.63
2022-10-07T07:10:45.983Z,2.40
2022-10-07T07:13:14.611Z,2.53
2022-10-07T07:15:42.138Z,2.13
2022-10-07T07:18:10.720Z,2.60
2022-10-07T07:20:39.142Z,2.30
2022-10-07T07:23:09.606Z,2.38
2022-10-07T07:25:38.911Z,2.30
2022-10-07T07:28:08.050Z,2.08
2022-10-07T07:30:37.192Z,1.95
2022-10-07T07:33:05.456Z,2.00
2022-10-07T07:35:38.775Z,2.13
2022-10-07T07:38:06.135Z,1.90
2022-10-07T07:40:37.700Z,2.35
2022-10-07T07:43:06.027Z,1.90
2022-10-07T07:45:36.885Z,2.17
2022-10-07T07:48:04.994Z,2.00
2022-10-07T07:50:34.125Z,2.13
2022-10-07T07:53:04.520Z,1.83
2022-10-07T07:55:32.343Z,2.13
2022-10-07T07:57:59.617Z,2.10
2022-10-07T08:00:26.861Z,2.10
2022-10-07T08:03:02.673Z,1.98
2022-10-07T08:05:35.037Z,1.95
2022-10-07T08:08:03.437Z,2.38
2022-10-07T08:10:31.312Z,2.33
2022-10-07T08:12:59.150Z,1.98
2022-10-07T08:15:26.429Z,2.17
2022-10-07T08:17:54.027Z,2.42
2022-10-07T08:20:23.164Z,2.22
2022-10-07T08:22:52.670Z,2.28
2022-10-07T08:25:22.629Z,2.35
2022-10-07T08:27:50.725Z,2.25
2022-10-07T08:30:17.990Z,2.20
2022-10-07T08:32:45.679Z,2.22
2022-10-07T08:35:12.893Z,2.40
2022-10-07T08:37:41.098Z,2.03
2022-10-07T08:40:15.324Z,2.20
2022-10-07T08:42:44.132Z,2.00
2022-10-07T08:45:21.113Z,2.03
2022-10-07T08:47:51.558Z,1.92
2022-10-07T08:50:25.048Z,2.30
2022-10-07T08:53:00.210Z,2.10
2022-10-07T08:55:50.072Z,2.03
2022-10-07T08:58:58.044Z,1.83
2022-10-07T09:01:33.927Z,2.20
2022-10-07T09:04:17.269Z,1.92
2022-10-07T09:06:55.401Z,2.05
2022-10-07T09:09:40.197Z,1.98
2022-10-07T09:12:23.142Z,2.13
2022-10-07T09:14:55.135Z,2.20
2022-10-07T09:17:38.325Z,2.25
2022-10-07T09:20:17.833Z,1.80
2022-10-07T09:22:51.041Z,2.08
2022-10-07T09:25:24.329Z,1.55
2022-10-07T09:27:52.362Z,2.10
2022-10-07T09:30:21.259Z,1.83
2022-10-07T09:32:50.537Z,1.80
2022-10-07T09:35:22.171Z,1.88
2022-10-07T09:38:09.587Z,2.08
2022-10-07T09:43:14.268Z,2.05
2022-10-07T09:45:47.077Z,1.85
2022-10-07T09:48:27.763Z,2.20
2022-10-07T09:51:27.728Z,1.70
2022-10-07T09:53:59.032Z,1.98
2022-10-07T09:56:39.626Z,2.20
2022-10-07T09:59:21.813Z,1.80
2022-10-07T10:01:55.904Z,2.03
2022-10-07T10:04:35.806Z,1.90
2022-10-07T10:07:16.918Z,2.10
2022-10-07T10:10:17.690Z,2.00
2022-10-07T10:12:56.338Z,2.15
2022-10-07T10:15:25.619Z,2.45
2022-10-07T10:17:54.864Z,2.00
2022-10-07T10:20:29.804Z,2.10
2022-10-07T10:22:58.214Z,1.70
2022-10-07T10:26:10.981Z,1.75
2022-10-07T10:28:49.931Z,1.90
2022-10-07T10:31:24.226Z,1.67
2022-10-07T10:34:05.437Z,1.95
2022-10-07T10:36:38.162Z,1.75
2022-10-07T10:39:35.349Z,2.08
2022-10-07T10:42:08.099Z,1.87
2022-10-07T10:44:34.968Z,2.20
2022-10-07T10:47:12.412Z,2.13
2022-10-07T10:49:45.572Z,1.92
2022-10-07T10:52:26.041Z,2.20
2022-10-07T10:55:18.085Z,2.08
2022-10-07T10:58:06.739Z,1.85
2022-10-07T11:00:58.861Z,1.90
2022-10-07T11:03:40.416Z,1.98
2022-10-07T11:06:14.242Z,1.60
2022-10-07T11:08:45.296Z,2.00
2022-10-07T11:11:19.138Z,2.05
2022-10-07T11:14:00.509Z,1.73
2022-10-07T11:16:38.633Z,1.80
2022-10-07T11:19:35.869Z,2.10
2022-10-07T11:22:03.780Z,1.70
2022-10-07T11:24:40.782Z,1.75
2022-10-07T11:27:16.998Z,2.00
2022-10-07T11:29:50.187Z,2.00
2022-10-07T11:32:24.190Z,2.10
2022-10-07T11:34:59.999Z,1.83
2022-10-07T11:37:38.775Z,1.98
2022-10-07T11:40:07.361Z,1.95
2022-10-07T11:42:43.130Z,2.40
2022-10-07T11:45:18.734Z,1.85
2022-10-07T11:48:01.513Z,1.75
2022-10-07T11:50:38.630Z,1.83
2022-10-07T11:53:17.583Z,2.05
2022-10-07T11:55:52.958Z,1.92
2022-10-07T11:58:37.258Z,2.10
2022-10-07T12:01:26.139Z,1.90
2022-10-07T12:04:14.342Z,2.00
2022-10-07T12:07:19.695Z,1.80
2022-10-07T12:10:05.119Z,2.22
2022-10-07T12:12:47.673Z,1.95
2022-10-07T12:15:42.290Z,2.17
2022-10-07T12:18:13.422Z,1.75
2022-10-07T12:20:55.021Z,2.10
2022-10-07T12:23:22.365Z,2.08
2022-10-07T12:26:04.372Z,1.90
2022-10-07T12:28:40.955Z,2.17
2022-10-07T12:31:17.955Z,1.85
2022-10-07T12:33:47.724Z,2.03
2022-10-07T12:36:27.790Z,1.98
2022-10-07T12:38:59.626Z,1.80
2022-10-07T12:41:26.568Z,2.17
2022-10-07T12:44:10.914Z,2.00
2022-10-07T12:46:37.863Z,1.92
2022-10-07T12:49:13.405Z,2.10
2022-10-07T12:51:41.283Z,2.03
2022-10-07T12:54:33.812Z,1.75
2022-10-07T12:57:02.733Z,2.15
2022-10-07T12:59:47.817Z,2.40
2022-10-07T13:02:52.446Z,2.70
2022-10-07T13:05:37.701Z,2.00
2022-10-07T13:08:29.251Z,1.92
2022-10-07T13:11:20.502Z,2.20
2022-10-07T13:13:59.167Z,2.05
2022-10-07T13:16:38.692Z,2.00
2022-10-07T13:19:15.709Z,2.03
2022-10-07T13:24:24.789Z,2.30
2022-10-07T13:26:52.392Z,2.15
2022-10-07T13:29:27.930Z,2.13
2022-10-07T13:32:08.011Z,2.08
2022-10-07T13:34:35.444Z,2.17
2022-10-07T13:37:03.481Z,1.92
2022-10-07T13:39:30.814Z,2.35
2022-10-07T13:41:59.961Z,1.85
2022-10-07T13:44:30.504Z,1.92
2022-10-07T13:47:03.187Z,2.10
2022-10-07T13:49:35.405Z,2.30
2022-10-07T13:52:06.834Z,2.25
2022-10-07T13:54:34.501Z,2.35
2022-10-07T13:57:07.825Z,2.47
2022-10-07T13:59:37.500Z,2.38
2022-10-07T14:02:05.061Z,1.90
2022-10-07T14:04:34.798Z,2.00
2022-10-07T14:07:08.990Z,1.85
2022-10-07T14:09:56.576Z,2.70
2022-10-07T14:12:31.913Z,2.00
2022-10-07T14:15:21.409Z,2.17
2022-10-07T14:17:55.239Z,2.00
2022-10-07T14:20:25.840Z,2.00
2022-10-07T14:22:58.355Z,2.17
2022-10-07T14:25:48.638Z,2.10
2022-10-07T14:28:24.994Z,2.13
2022-10-07T14:31:25.941Z,1.92
2022-10-07T14:34:33.700Z,1.92
2022-10-07T14:37:18.114Z,2.25
2022-10-07T14:39:47.996Z,2.15
2022-10-07T14:42:27.761Z,2.58
2022-10-07T14:44:57.289Z,2.10
2022-10-07T14:47:28.151Z,2.17
2022-10-07T14:49:56.584Z,2.45
2022-10-07T14:52:31.043Z,2.47
2022-10-07T14:55:00.709Z,2.47
2022-10-07T14:57:27.685Z,2.38
2022-10-07T14:59:55.109Z,2.30
2022-10-07T15:02:22.588Z,2.78
2022-10-07T15:04:49.687Z,2.58
2022-10-07T15:07:17.598Z,2.10
2022-10-07T15:09:45.804Z,2.25
2022-10-07T15:12:15.258Z,2.00
2022-10-07T15:14:42.542Z,2.28
2022-10-07T15:17:13.153Z,2.10
2022-10-07T15:19:40.396Z,2.00
2022-10-07T15:22:08.776Z,2.00
2022-10-07T15:24:36.232Z,2.40
2022-10-07T15:27:03.402Z,2.33
2022-10-07T15:29:30.391Z,2.42
2022-10-07T15:31:57.390Z,2.30
2022-10-07T15:34:25.980Z,2.60
2022-10-07T15:36:52.914Z,2.40
2022-10-07T15:39:19.922Z,3.15
2022-10-07T15:41:46.878Z,2.42
2022-10-07T15:44:19.169Z,2.83
2022-10-07T15:46:48.738Z,2.35
2022-10-07T15:49:19.235Z,2.80
2022-10-07T15:51:46.928Z,2.65
2022-10-07T15:54:14.006Z,2.15
2022-10-07T15:56:42.397Z,2.28
2022-10-07T15:59:11.511Z,2.45
2022-10-07T16:01:38.466Z,2.38
2022-10-07T16:04:06.088Z,2.30
2022-10-07T16:06:35.670Z,2.15
2022-10-07T16:09:03.886Z,1.95
2022-10-07T16:11:33.145Z,2.08
2022-10-07T16:14:02.065Z,2.10
2022-10-07T16:16:31.498Z,2.42
2022-10-07T16:19:00.592Z,2.40
2022-10-07T16:21:33.125Z,2.35
2022-10-07T16:24:10.120Z,2.40
2022-10-07T16:26:37.637Z,2.63
2022-10-07T16:29:30.626Z,3.00
2022-10-07T16:31:59.174Z,2.08
2022-10-07T16:34:28.794Z,2.47
2022-10-07T16:36:57.214Z,2.10
2022-10-07T16:39:24.681Z,2.10
2022-10-07T16:41:52.487Z,2.47
2022-10-07T16:44:20.498Z,2.67
2022-10-07T16:46:48.539Z,2.17
2022-10-07T16:49:18.018Z,2.15
2022-10-07T16:51:46.702Z,2.40
2022-10-07T16:54:16.518Z,2.42
2022-10-07T16:56:47.934Z,2.42
2022-10-07T16:59:22.455Z,2.38
2022-10-07T17:01:52.222Z,2.17
2022-10-07T17:04:19.462Z,2.20
2022-10-07T17:06:46.740Z,2.40
2022-10-07T17:09:14.422Z,2.13
2022-10-07T17:11:42.146Z,2.30
2022-10-07T17:14:12.186Z,2.88
2022-10-07T17:16:58.333Z,2.20
2022-10-07T17:19:27.807Z,2.50
2022-10-07T17:21:56.661Z,2.35
2022-10-07T17:24:24.395Z,2.53
2022-10-07T17:26:55.323Z,2.30
2022-10-07T17:29:25.084Z,2.47
2022-10-07T17:31:52.585Z,2.35
2022-10-07T17:34:21.321Z,2.28
2022-10-07T17:36:49.280Z,2.60
2022-10-07T17:39:18.398Z,2.25
2022-10-07T17:41:45.464Z,2.35
2022-10-07T17:44:13.353Z,2.40
2022-10-07T17:46:41.786Z,2.30
2022-10-07T17:49:14.796Z,2.25
2022-10-07T17:51:43.468Z,2.58
2022-10-07T17:54:12.232Z,2.80
2022-10-07T17:56:39.626Z,2.55
2022-10-07T17:59:06.775Z,2.53
2022-10-07T18:01:35.228Z,2.30
2022-10-07T18:04:05.091Z,2.67
2022-10-07T18:06:34.549Z,3.10
2022-10-07T18:09:04.519Z,2.67
2022-10-07T18:11:51.282Z,3.13
2022-10-07T18:14:37.812Z,2.30
2022-10-07T18:17:06.353Z,2.72
2022-10-07T18:19:33.739Z,3.08
2022-10-07T18:22:03.114Z,2.63
2022-10-07T18:24:30.250Z,3.03
2022-10-07T18:26:59.289Z,3.10
2022-10-07T18:29:27.924Z,3.20
2022-10-07T18:31:55.100Z,3.03
2022-10-07T18:34:22.479Z,3.15
2022-10-07T18:36:55.227Z,3.00
2022-10-07T18:39:23.766Z,3.03
2022-10-07T18:41:51.212Z,3.20
2022-10-07T18:44:18.330Z,3.08
2022-10-07T18:46:45.643Z,3.03
2022-10-07T18:49:15.410Z,3.33
2022-10-07T18:51:43.189Z,2.80
2022-10-07T18:54:10.808Z,2.65
2022-10-07T18:56:41.062Z,3.15
2022-10-07T18:59:10.012Z,3.10
2022-10-07T19:01:38.008Z,2.50
2022-10-07T19:04:06.946Z,2.60
2022-10-07T19:06:36.975Z,2.67
2022-10-07T19:09:08.712Z,5.15
2022-10-07T19:11:36.216Z,3.45
2022-10-07T19:14:04.118Z,3.00
2022-10-07T19:16:36.854Z,3.20
2022-10-07T19:19:06.995Z,3.20
2022-10-07T19:21:35.992Z,3.30
2022-10-07T19:24:03.789Z,2.92
2022-10-07T19:26:35.202Z,3.38
2022-10-07T19:29:03.216Z,3.42
2022-10-07T19:31:36.576Z,2.80
2022-10-07T19:34:12.644Z,3.65
2022-10-07T19:36:42.445Z,2.95
2022-10-07T19:39:10.868Z,3.30
2022-10-07T19:41:38.428Z,2.65
2022-10-07T19:44:05.964Z,3.30
2022-10-07T19:46:33.742Z,3.30
2022-10-07T19:49:02.213Z,3.55
2022-10-07T19:51:30.971Z,3.60
2022-10-07T19:54:00.755Z,3.03
2022-10-07T19:56:31.314Z,4.10
2022-10-07T19:59:05.547Z,3.78
2022-10-07T20:01:38.167Z,3.28
2022-10-07T20:04:12.875Z,3.28
2022-10-07T20:06:41.100Z,3.30
2022-10-07T20:09:11.438Z,4.07
2022-10-07T20:11:38.550Z,3.00
2022-10-07T20:14:06.794Z,2.95
2022-10-07T20:16:34.953Z,3.40
2022-10-07T20:19:08.054Z,3.50
2022-10-07T20:21:37.692Z,2.90
2022-10-07T20:24:06.850Z,2.63
2022-10-07T20:26:36.478Z,3.72
2022-10-07T20:29:06.073Z,3.67
2022-10-07T20:31:35.576Z,3.15
2022-10-07T20:34:03.079Z,3.33
2022-10-07T20:36:35.217Z,3.28
2022-10-07T20:39:35.808Z,3.63
2022-10-07T20:42:21.370Z,3.72
2022-10-07T20:44:49.612Z,3.05
2022-10-07T20:47:17.931Z,3.05
2022-10-07T20:49:44.979Z,3.10
2022-10-07T20:52:16.921Z,3.03
2022-10-07T20:54:44.733Z,5.05
2022-10-07T20:57:13.151Z,3.88
2022-10-07T20:59:42.072Z,4.22
2022-10-07T21:02:14.500Z,3.53
2022-10-07T21:04:42.158Z,3.50
2022-10-07T21:07:09.424Z,8.15
2022-10-07T21:09:36.793Z,4.70
2022-10-07T21:12:07.509Z,3.88
2022-10-07T21:14:38.097Z,3.33
2022-10-07T21:17:06.337Z,3.90
2022-10-07T21:19:36.124Z,3.35
2022-10-07T21:22:05.151Z,3.70
2022-10-07T21:24:36.039Z,3.47
2022-10-07T21:27:05.728Z,3.40
2022-10-07T21:29:38.944Z,3.50
2022-10-07T21:32:08.384Z,3.47
2022-10-07T21:34:35.483Z,4.25
2022-10-07T21:37:02.887Z,4.07
2022-10-07T21:39:30.079Z,4.03
2022-10-07T21:41:58.172Z,3.63
2022-10-07T21:44:26.931Z,4.15
2022-10-07T21:46:53.915Z,3.97
2022-10-07T21:49:20.980Z,3.42
2022-10-07T21:51:48.186Z,3.92
2022-10-07T21:54:15.628Z,3.80
2022-10-07T21:56:46.188Z,4.20
2022-10-07T21:59:14.459Z,4.10
2022-10-07T22:01:42.744Z,4.18
2022-10-07T22:04:16.251Z,3.78
2022-10-07T22:07:01.696Z,4.15
2022-10-07T22:09:29.081Z,3.67
2022-10-07T22:11:57.153Z,3.22
2022-10-07T22:14:24.198Z,3.97
2022-10-07T22:16:51.219Z,3.55
2022-10-07T22:19:18.247Z,3.47
2022-10-07T22:21:45.995Z,3.88
2022-10-07T22:24:14.253Z,4.13
2022-10-07T22:26:46.111Z,3.30
2022-10-07T22:29:15.481Z,3.60
2022-10-07T22:31:43.068Z,3.78
2022-10-07T22:34:30.277Z,3.70
2022-10-07T22:37:00.031Z,4.10
2022-10-07T22:39:28.790Z,3.80
2022-10-07T22:41:59.940Z,3.63
2022-10-07T22:44:28.223Z,4.47
2022-10-07T22:46:56.591Z,3.60
2022-10-07T22:49:28.622Z,4.22
2022-10-07T22:51:58.337Z,3.60
2022-10-07T22:54:26.321Z,3.25
2022-10-07T22:56:53.291Z,3.50
2022-10-07T22:59:20.276Z,4.13
2022-10-07T23:01:47.254Z,4.03
2022-10-07T23:04:14.330Z,3.83
2022-10-07T23:06:41.375Z,3.90
2022-10-07T23:09:08.472Z,3.72
2022-10-07T23:11:35.510Z,3.83
2022-10-07T23:14:02.697Z,3.60
2022-10-07T23:16:30.280Z,3.55
2022-10-07T23:18:59.143Z,3.80
2022-10-07T23:21:28.649Z,3.40
2022-10-07T23:24:06.953Z,3.95
2022-10-07T23:26:35.850Z,3.55
2022-10-07T23:29:02.973Z,3.72
2022-10-07T23:31:32.319Z,3.70
2022-10-07T23:34:01.739Z,4.20
2022-10-07T23:36:29.472Z,3.55
2022-10-07T23:38:58.294Z,3.63
2022-10-07T23:41:29.555Z,3.90
2022-10-07T23:44:02.255Z,4.35
2022-10-07T23:46:33.204Z,4.03
2022-10-07T23:49:00.800Z,4.40
2022-10-07T23:51:28.990Z,4.50
2022-10-07T23:53:56.724Z,3.67
2022-10-07T23:56:24.030Z,4.65
2022-10-07T23:58:51.231Z,4.05
